createdAt,value
2024-02-26T00:01:47.711Z,25.27
2024-02-26T00:04:15.789Z,25.97
2024-02-26T00:06:43.977Z,25.47
2024-02-26T00:09:12.334Z,25.73
2024-02-26T00:11:40.703Z,25.93
2024-02-26T00:14:10.317Z,25.97
2024-02-26T00:16:38.478Z,26.00
2024-02-26T00:19:06.642Z,26.03
2024-02-26T00:21:34.674Z,25.90
2024-02-26T00:24:02.660Z,26.00
2024-02-26T00:26:30.779Z,26.30
2024-02-26T00:28:58.746Z,26.10
2024-02-26T00:31:28.127Z,26.20
2024-02-26T00:33:56.533Z,26.27
2024-02-26T00:36:24.851Z,26.17
2024-02-26T00:38:52.955Z,26.10
2024-02-26T00:41:21.308Z,26.30
2024-02-26T00:43:49.332Z,26.47
2024-02-26T00:46:17.426Z,26.47
2024-02-26T00:48:48.182Z,26.43
2024-02-26T00:51:16.664Z,26.43
2024-02-26T00:53:45.019Z,26.10
2024-02-26T00:56:13.017Z,26.27
2024-02-26T00:58:41.172Z,26.30
2024-02-26T01:01:09.273Z,26.20
2024-02-26T01:03:37.706Z,26.27
2024-02-26T01:06:07.315Z,26.00
2024-02-26T01:08:36.813Z,26.40
2024-02-26T01:11:05.283Z,26.13
2024-02-26T01:13:33.270Z,25.97
2024-02-26T01:16:01.737Z,26.43
2024-02-26T01:18:29.855Z,26.20
2024-02-26T01:20:58.039Z,26.37
2024-02-26T01:23:27.551Z,26.30
2024-02-26T01:25:55.552Z,25.97
2024-02-26T01:28:23.503Z,26.33
2024-02-26T01:30:51.649Z,26.53
2024-02-26T01:33:19.799Z,26.20
2024-02-26T01:35:47.938Z,26.37
2024-02-26T01:38:16.026Z,26.13
2024-02-26T01:40:45.458Z,26.03
2024-02-26T01:43:13.444Z,26.53
2024-02-26T01:45:41.490Z,26.37
2024-02-26T01:48:11.830Z,26.13
2024-02-26T01:50:40.103Z,25.87
2024-02-26T01:53:09.393Z,26.17
2024-02-26T01:55:37.645Z,26.17
2024-02-26T01:58:08.008Z,26.10
2024-02-26T02:00:36.495Z,26.07
2024-02-26T02:03:05.980Z,26.47
2024-02-26T02:05:35.154Z,26.73
2024-02-26T02:08:05.108Z,26.50
2024-02-26T02:10:33.191Z,26.27
2024-02-26T02:13:01.147Z,26.37
2024-02-26T02:15:30.681Z,26.07
2024-02-26T02:17:58.862Z,26.50
2024-02-26T02:20:34.073Z,26.30
2024-02-26T02:23:02.638Z,26.17
2024-02-26T02:25:30.881Z,26.57
2024-02-26T02:27:59.951Z,25.90
2024-02-26T02:30:30.658Z,26.43
2024-02-26T02:33:00.575Z,26.03
2024-02-26T02:35:30.131Z,26.10
2024-02-26T02:37:59.379Z,26.23
2024-02-26T02:40:27.526Z,26.33
2024-02-26T02:42:55.497Z,25.90
2024-02-26T02:45:23.731Z,26.07
2024-02-26T02:47:51.899Z,26.23
2024-02-26T02:50:20.014Z,26.40
2024-02-26T02:52:51.295Z,26.20
2024-02-26T02:55:20.077Z,25.90
2024-02-26T02:57:48.095Z,26.53
2024-02-26T03:00:16.696Z,26.50
2024-02-26T03:02:46.275Z,26.53
2024-02-26T03:05:14.492Z,26.70
2024-02-26T03:07:42.643Z,26.90
2024-02-26T03:10:13.179Z,26.80
2024-02-26T03:12:41.272Z,27.10
2024-02-26T03:15:09.806Z,27.00
2024-02-26T03:17:38.549Z,27.07
2024-02-26T03:20:09.622Z,27.67
2024-02-26T03:22:37.637Z,27.30
2024-02-26T03:25:06.609Z,27.53
2024-02-26T03:27:36.005Z,27.57
2024-02-26T03:30:04.913Z,26.67
2024-02-26T03:32:33.041Z,27.57
2024-02-26T03:35:01.240Z,26.53
2024-02-26T03:37:29.430Z,27.63
2024-02-26T03:39:58.262Z,26.87
2024-02-26T03:42:26.303Z,26.97
2024-02-26T03:44:55.666Z,27.43
2024-02-26T03:47:23.806Z,27.57
2024-02-26T03:49:51.736Z,26.80
2024-02-26T03:52:19.739Z,27.43
2024-02-26T03:54:47.764Z,27.57
2024-02-26T03:57:15.873Z,27.57
2024-02-26T03:59:44.058Z,27.47
2024-02-26T04:02:13.484Z,27.40
2024-02-26T04:04:41.514Z,27.27
2024-02-26T04:07:09.900Z,27.53
2024-02-26T04:09:38.093Z,27.60
2024-02-26T04:12:06.913Z,27.47
2024-02-26T04:14:35.043Z,27.53
2024-02-26T04:17:03.082Z,27.23
2024-02-26T04:19:32.502Z,27.50
2024-02-26T04:22:01.916Z,27.37
2024-02-26T04:24:30.178Z,27.40
2024-02-26T04:26:58.531Z,27.40
2024-02-26T04:29:26.508Z,27.37
2024-02-26T04:31:54.464Z,27.50
2024-02-26T04:34:22.552Z,27.37
2024-02-26T04:36:52.182Z,27.33
2024-02-26T04:39:19.403Z,27.40
2024-02-26T04:41:48.555Z,27.53
2024-02-26T04:44:16.506Z,27.53
2024-02-26T04:46:44.696Z,27.47
2024-02-26T04:49:12.763Z,27.50
2024-02-26T04:51:41.229Z,27.27
2024-02-26T04:54:10.645Z,27.27
2024-02-26T04:56:38.755Z,27.27
2024-02-26T04:59:06.760Z,26.97
2024-02-26T05:01:34.966Z,27.57
2024-02-26T05:04:03.049Z,27.37
2024-02-26T05:06:31.559Z,27.30
2024-02-26T05:08:59.680Z,27.20
2024-02-26T05:11:29.109Z,27.53
2024-02-26T05:13:57.191Z,27.17
2024-02-26T05:16:25.823Z,27.47
2024-02-26T05:18:54.163Z,27.17
2024-02-26T05:21:22.573Z,27.37
2024-02-26T05:23:50.686Z,27.07
2024-02-26T05:26:22.485Z,27.37
2024-02-26T05:28:52.406Z,27.13
2024-02-26T05:31:20.774Z,27.20
2024-02-26T05:33:49.077Z,27.27
2024-02-26T05:36:22.296Z,27.37
2024-02-26T05:38:50.512Z,27.23
2024-02-26T05:41:23.935Z,27.20
2024-02-26T05:43:53.433Z,27.40
2024-02-26T05:46:22.002Z,27.40
2024-02-26T05:48:52.938Z,27.43
2024-02-26T05:51:21.367Z,27.33
2024-02-26T05:53:55.155Z,26.77
2024-02-26T05:56:23.802Z,27.30
2024-02-26T05:58:53.978Z,26.60
2024-02-26T06:01:22.298Z,26.70
2024-02-26T06:03:50.546Z,26.93
2024-02-26T06:06:19.477Z,26.97
2024-02-26T06:08:47.598Z,27.37
2024-02-26T06:11:17.457Z,27.47
2024-02-26T06:13:45.908Z,27.27
2024-02-26T06:16:15.325Z,27.00
2024-02-26T06:18:43.735Z,27.30
2024-02-26T06:21:12.700Z,27.43
2024-02-26T06:23:41.651Z,27.60
2024-02-26T06:26:11.136Z,26.90
2024-02-26T06:28:41.999Z,27.60
2024-02-26T06:31:10.649Z,27.40
2024-02-26T06:33:40.966Z,26.67
2024-02-26T06:36:09.288Z,27.60
2024-02-26T06:38:37.463Z,27.50
2024-02-26T06:41:05.809Z,27.30
2024-02-26T06:43:35.316Z,27.67
2024-02-26T06:46:03.570Z,27.57
2024-02-26T06:48:31.881Z,27.00
2024-02-26T06:51:01.437Z,27.40
2024-02-26T06:53:31.929Z,27.37
2024-02-26T06:55:59.941Z,27.40
2024-02-26T06:58:27.877Z,27.73
2024-02-26T07:00:55.924Z,27.63
2024-02-26T07:03:25.592Z,27.40
2024-02-26T07:05:53.964Z,27.50
2024-02-26T07:08:23.538Z,27.67
2024-02-26T07:10:51.662Z,27.13
2024-02-26T07:13:19.797Z,26.90
2024-02-26T07:15:47.821Z,26.97
2024-02-26T07:18:15.965Z,26.87
2024-02-26T07:20:44.144Z,26.93
2024-02-26T07:23:12.210Z,26.33
2024-02-26T07:25:42.018Z,27.40
2024-02-26T07:28:10.118Z,26.83
2024-02-26T07:30:38.216Z,27.07
2024-02-26T07:33:06.636Z,26.80
2024-02-26T07:35:34.748Z,26.73
2024-02-26T07:38:02.857Z,26.57
2024-02-26T07:40:30.858Z,26.47
2024-02-26T07:43:00.369Z,27.67
2024-02-26T07:45:28.808Z,26.40
2024-02-26T07:47:57.061Z,26.80
2024-02-26T07:50:25.264Z,26.73
2024-02-26T07:52:54.060Z,26.17
2024-02-26T07:55:23.307Z,26.70
2024-02-26T07:57:51.473Z,26.77
2024-02-26T08:00:22.022Z,26.67
2024-02-26T08:02:50.142Z,26.63
2024-02-26T08:05:18.638Z,26.27
2024-02-26T08:07:46.707Z,26.53
2024-02-26T08:10:14.950Z,26.70
2024-02-26T08:12:43.174Z,26.43
2024-02-26T08:15:12.499Z,26.37
2024-02-26T08:17:42.045Z,26.53
2024-02-26T08:20:10.884Z,25.77
2024-02-26T08:22:40.256Z,25.80
2024-02-26T08:25:10.315Z,25.37
2024-02-26T08:27:38.412Z,25.13
2024-02-26T08:30:08.498Z,25.47
2024-02-26T08:32:36.497Z,25.40
2024-02-26T08:35:06.925Z,25.27
2024-02-26T08:37:34.883Z,25.40
2024-02-26T08:40:06.319Z,25.03
2024-02-26T08:42:35.602Z,25.37
2024-02-26T08:45:04.751Z,26.03
2024-02-26T08:47:38.327Z,26.37
2024-02-26T08:50:10.635Z,26.00
2024-02-26T08:52:38.882Z,26.13
2024-02-26T08:55:09.849Z,26.13
2024-02-26T08:57:38.021Z,25.93
2024-02-26T09:00:07.130Z,25.83
2024-02-26T09:02:35.229Z,25.90
2024-02-26T09:05:03.647Z,25.93
2024-02-26T09:07:33.125Z,26.40
2024-02-26T09:10:01.189Z,25.70
2024-02-26T09:12:29.333Z,25.50
2024-02-26T09:14:58.556Z,24.80
2024-02-26T09:17:26.586Z,25.43
2024-02-26T09:19:54.862Z,25.70
2024-02-26T09:22:23.910Z,24.47
2024-02-26T09:24:54.652Z,25.33
2024-02-26T09:27:23.451Z,25.17
2024-02-26T09:29:51.548Z,24.87
2024-02-26T09:32:20.025Z,24.93
2024-02-26T09:34:48.066Z,24.83
2024-02-26T09:37:21.600Z,24.83
2024-02-26T09:39:50.600Z,24.90
2024-02-26T09:42:21.438Z,24.60
2024-02-26T09:44:51.839Z,24.80
2024-02-26T09:47:21.558Z,23.97
2024-02-26T09:49:54.194Z,24.27
2024-02-26T09:52:23.026Z,24.40
2024-02-26T09:54:51.222Z,24.23
2024-02-26T09:57:20.652Z,23.93
2024-02-26T09:59:50.435Z,24.20
2024-02-26T10:02:21.778Z,24.53
2024-02-26T10:04:52.587Z,24.20
2024-02-26T10:07:21.853Z,24.13
2024-02-26T10:09:50.371Z,23.97
2024-02-26T10:12:20.324Z,24.37
2024-02-26T10:14:48.517Z,23.90
2024-02-26T10:17:17.192Z,24.17
2024-02-26T10:19:45.375Z,24.27
2024-02-26T10:22:13.486Z,24.10
2024-02-26T10:24:41.486Z,24.07
2024-02-26T10:27:11.313Z,23.83
2024-02-26T10:29:41.429Z,23.80
2024-02-26T10:32:10.466Z,23.43
2024-02-26T10:34:39.217Z,23.77
2024-02-26T10:37:07.840Z,23.30
2024-02-26T10:39:38.551Z,23.03
2024-02-26T10:42:11.030Z,22.50
2024-02-26T10:44:44.020Z,22.67
2024-02-26T10:47:12.080Z,22.47
2024-02-26T10:49:40.404Z,21.90
2024-02-26T10:52:09.145Z,21.70
2024-02-26T10:54:41.302Z,21.70
2024-02-26T10:57:10.782Z,21.33
2024-02-26T10:59:41.595Z,21.87
2024-02-26T11:02:12.408Z,21.63
2024-02-26T11:04:41.576Z,21.50
2024-02-26T11:07:11.913Z,21.80
2024-02-26T11:09:44.823Z,23.00
2024-02-26T11:12:14.844Z,24.10
2024-02-26T11:14:48.219Z,23.47
2024-02-26T11:17:18.780Z,21.93
2024-02-26T11:19:48.434Z,24.27
2024-02-26T11:22:21.487Z,25.03
2024-02-26T11:24:53.313Z,24.70
2024-02-26T11:27:23.946Z,24.90
2024-02-26T11:29:55.882Z,25.40
2024-02-26T11:32:24.163Z,25.20
2024-02-26T11:34:52.480Z,24.73
2024-02-26T11:37:21.821Z,25.00
2024-02-26T11:39:49.810Z,25.40
2024-02-26T11:42:19.435Z,25.20
2024-02-26T11:44:47.623Z,24.93
2024-02-26T11:47:32.720Z,25.07
2024-02-26T11:50:01.134Z,24.93
2024-02-26T11:52:29.161Z,24.73
2024-02-26T11:55:05.588Z,24.70
2024-02-26T11:57:46.870Z,25.20
2024-02-26T12:00:23.946Z,25.37
2024-02-26T12:03:02.602Z,25.27
2024-02-26T12:05:35.422Z,25.17
2024-02-26T12:08:09.071Z,23.27
2024-02-26T12:10:39.931Z,24.90
2024-02-26T12:13:09.891Z,24.70
2024-02-26T12:15:40.582Z,24.77
2024-02-26T12:18:11.777Z,24.93
2024-02-26T12:20:40.295Z,24.93
2024-02-26T12:23:08.801Z,25.47
2024-02-26T12:25:36.823Z,24.93
2024-02-26T12:28:05.064Z,22.40
2024-02-26T12:30:33.751Z,20.63
2024-02-26T12:33:02.216Z,20.80
2024-02-26T12:35:33.370Z,21.13
2024-02-26T12:38:03.984Z,20.70
2024-02-26T12:40:33.022Z,20.27
2024-02-26T12:43:01.105Z,20.17
2024-02-26T12:45:29.937Z,20.33
2024-02-26T12:47:58.572Z,20.50
2024-02-26T12:50:27.084Z,22.83
2024-02-26T12:52:56.809Z,22.97
2024-02-26T12:55:25.008Z,22.67
2024-02-26T12:57:55.332Z,23.47
2024-02-26T13:00:29.551Z,22.90
2024-02-26T13:02:58.606Z,23.03
2024-02-26T13:05:27.678Z,24.00
2024-02-26T13:07:57.861Z,23.93
2024-02-26T13:10:26.426Z,23.03
2024-02-26T13:12:55.042Z,23.67
2024-02-26T13:15:24.110Z,23.60
2024-02-26T13:17:54.609Z,23.70
2024-02-26T13:20:32.647Z,23.40
2024-02-26T13:23:07.648Z,23.67
2024-02-26T13:25:37.271Z,23.50
2024-02-26T13:28:11.049Z,23.17
2024-02-26T13:30:39.226Z,23.40
2024-02-26T13:33:11.917Z,23.57
2024-02-26T13:35:41.116Z,23.33
2024-02-26T13:38:12.341Z,23.50
2024-02-26T13:40:41.298Z,23.27
2024-02-26T13:43:09.550Z,22.47
2024-02-26T13:45:38.725Z,22.30
2024-02-26T13:48:08.291Z,21.77
2024-02-26T13:50:37.612Z,23.07
2024-02-26T13:53:05.977Z,22.70
2024-02-26T13:55:35.645Z,22.63
2024-02-26T13:58:04.989Z,22.67
2024-02-26T14:00:35.408Z,23.20
2024-02-26T14:03:05.054Z,22.67
2024-02-26T14:05:33.244Z,22.23
2024-02-26T14:08:02.311Z,21.77
2024-02-26T14:10:31.528Z,21.20
2024-02-26T14:13:01.727Z,21.23
2024-02-26T14:15:30.757Z,20.67
2024-02-26T14:17:59.198Z,20.57
2024-02-26T14:20:28.266Z,20.33
2024-02-26T14:22:56.599Z,20.43
2024-02-26T14:25:28.097Z,20.33
2024-02-26T14:27:59.431Z,20.17
2024-02-26T14:30:29.468Z,20.17
2024-02-26T14:32:57.808Z,20.43
2024-02-26T14:35:26.162Z,20.57
2024-02-26T14:37:55.235Z,22.30
2024-02-26T14:40:23.707Z,20.60
2024-02-26T14:42:52.231Z,20.17
2024-02-26T14:45:20.379Z,20.77
2024-02-26T14:47:49.889Z,23.63
2024-02-26T14:50:18.154Z,23.07
2024-02-26T14:52:46.234Z,21.40
2024-02-26T14:55:14.654Z,21.53
2024-02-26T14:57:42.776Z,22.50
2024-02-26T15:00:12.324Z,21.90
2024-02-26T15:02:40.336Z,21.90
2024-02-26T15:05:12.296Z,22.00
2024-02-26T15:07:41.556Z,21.47
2024-02-26T15:10:11.002Z,21.13
2024-02-26T15:12:39.284Z,20.67
2024-02-26T15:15:08.757Z,20.77
2024-02-26T15:17:37.405Z,20.57
2024-02-26T15:20:08.821Z,20.50
2024-02-26T15:22:39.431Z,21.03
2024-02-26T15:25:10.288Z,19.57
2024-02-26T15:27:39.490Z,20.50
2024-02-26T15:30:08.668Z,20.30
2024-02-26T15:32:37.589Z,20.20
2024-02-26T15:35:06.508Z,21.50
2024-02-26T15:37:36.396Z,22.47
2024-02-26T15:40:08.345Z,22.20
2024-02-26T15:42:36.625Z,21.83
2024-02-26T15:45:04.966Z,19.70
2024-02-26T15:47:33.434Z,22.20
2024-02-26T15:50:02.864Z,21.77
2024-02-26T15:52:31.162Z,20.03
2024-02-26T15:54:59.135Z,19.93
2024-02-26T15:57:28.691Z,19.50
2024-02-26T16:00:01.659Z,19.40
2024-02-26T16:02:29.892Z,19.53
2024-02-26T16:04:58.839Z,19.13
2024-02-26T16:07:33.446Z,19.20
2024-02-26T16:10:04.388Z,18.80
2024-02-26T16:12:39.200Z,19.03
2024-02-26T16:15:10.262Z,19.23
2024-02-26T16:17:47.743Z,19.07
2024-02-26T16:20:17.384Z,18.83
2024-02-26T16:22:45.374Z,19.00
2024-02-26T16:25:13.713Z,20.20
2024-02-26T16:27:43.363Z,20.57
2024-02-26T16:30:12.530Z,21.70
2024-02-26T16:32:42.797Z,22.87
2024-02-26T16:35:12.868Z,22.27
2024-02-26T16:37:41.238Z,22.20
2024-02-26T16:40:11.070Z,22.73
2024-02-26T16:42:39.645Z,22.47
2024-02-26T16:45:10.108Z,18.33
2024-02-26T16:47:38.440Z,18.23
2024-02-26T16:50:07.533Z,17.97
2024-02-26T16:52:35.713Z,18.90
2024-02-26T16:55:06.601Z,18.17
2024-02-26T16:57:35.105Z,18.07
2024-02-26T17:00:04.371Z,17.90
2024-02-26T17:02:33.868Z,18.03
2024-02-26T17:05:01.994Z,17.77
2024-02-26T17:07:30.047Z,17.73
2024-02-26T17:09:58.259Z,18.00
2024-02-26T17:12:26.483Z,18.13
2024-02-26T17:14:54.661Z,17.97
2024-02-26T17:17:23.154Z,17.70
2024-02-26T17:19:52.522Z,17.83
2024-02-26T17:22:20.723Z,17.87
2024-02-26T17:24:49.101Z,17.97
2024-02-26T17:27:17.633Z,17.70
2024-02-26T17:29:45.572Z,17.73
2024-02-26T17:32:16.125Z,17.60
2024-02-26T17:34:45.152Z,17.60
2024-02-26T17:37:14.803Z,17.80
2024-02-26T17:39:43.200Z,17.53
2024-02-26T17:42:11.526Z,17.50
2024-02-26T17:44:40.099Z,17.60
2024-02-26T17:47:08.838Z,17.63
2024-02-26T17:49:37.142Z,17.63
2024-02-26T17:52:06.126Z,17.77
2024-02-26T17:54:37.148Z,19.57
2024-02-26T17:57:07.217Z,18.33
2024-02-26T17:59:35.628Z,18.20
2024-02-26T18:02:04.092Z,17.90
2024-02-26T18:04:32.297Z,18.37
2024-02-26T18:07:01.740Z,20.53
2024-02-26T18:09:30.118Z,20.60
2024-02-26T18:12:01.127Z,20.30
2024-02-26T18:14:29.293Z,19.93
2024-02-26T18:16:58.698Z,20.40
2024-02-26T18:19:26.741Z,20.33
2024-02-26T18:21:55.118Z,20.40
2024-02-26T18:24:23.254Z,20.47
2024-02-26T18:26:53.517Z,20.50
2024-02-26T18:29:23.622Z,20.50
2024-02-26T18:31:52.115Z,20.20
2024-02-26T18:34:20.982Z,20.00
2024-02-26T18:36:49.080Z,20.40
2024-02-26T18:39:17.470Z,20.13
2024-02-26T18:41:45.628Z,19.57
2024-02-26T18:44:15.737Z,19.90
2024-02-26T18:46:47.209Z,20.40
2024-02-26T18:49:15.633Z,20.30
2024-02-26T18:51:44.340Z,20.50
2024-02-26T18:54:12.684Z,19.03
2024-02-26T18:56:40.912Z,17.20
2024-02-26T18:59:09.881Z,16.93
2024-02-26T19:01:39.122Z,16.97
2024-02-26T19:04:08.794Z,17.03
2024-02-26T19:06:39.976Z,17.20
2024-02-26T19:09:09.449Z,17.17
2024-02-26T19:11:37.803Z,17.07
2024-02-26T19:14:07.077Z,17.10
2024-02-26T19:16:36.092Z,17.00
2024-02-26T19:19:05.032Z,17.40
2024-02-26T19:21:34.576Z,17.30
2024-02-26T19:24:04.155Z,17.33
2024-02-26T19:26:32.887Z,17.60
2024-02-26T19:29:04.316Z,17.13
2024-02-26T19:31:34.123Z,17.37
2024-02-26T19:34:02.588Z,17.50
2024-02-26T19:36:30.814Z,17.37
2024-02-26T19:39:00.265Z,17.37
2024-02-26T19:41:28.278Z,17.33
2024-02-26T19:43:56.284Z,17.60
2024-02-26T19:46:24.702Z,18.23
2024-02-26T19:48:53.385Z,17.90
2024-02-26T19:51:21.549Z,18.10
2024-02-26T19:53:49.576Z,18.77
2024-02-26T19:56:19.630Z,18.30
2024-02-26T19:58:47.568Z,18.57
2024-02-26T20:01:15.822Z,18.73
2024-02-26T20:03:49.502Z,18.73
2024-02-26T20:06:18.316Z,18.60
2024-02-26T20:08:46.491Z,18.90
2024-02-26T20:11:19.549Z,18.63
2024-02-26T20:13:47.566Z,18.77
2024-02-26T20:16:15.509Z,18.90
2024-02-26T20:18:43.604Z,18.70
2024-02-26T20:21:12.160Z,17.87
2024-02-26T20:23:40.111Z,18.17
2024-02-26T20:26:08.118Z,18.37
2024-02-26T20:28:37.795Z,18.60
2024-02-26T20:31:06.721Z,18.60
2024-02-26T20:33:37.122Z,18.67
2024-02-26T20:36:06.024Z,18.73
2024-02-26T20:38:34.188Z,18.93
2024-02-26T20:41:02.407Z,18.70
2024-02-26T20:43:30.543Z,19.17
2024-02-26T20:46:00.049Z,19.40
2024-02-26T20:48:28.194Z,19.27
2024-02-26T20:50:56.446Z,19.47
2024-02-26T20:53:24.511Z,19.27
2024-02-26T20:55:53.629Z,19.33
2024-02-26T20:58:21.678Z,19.33
2024-02-26T21:00:50.343Z,19.50
2024-02-26T21:03:20.036Z,19.63
2024-02-26T21:05:48.114Z,19.67
2024-02-26T21:08:23.752Z,18.90
2024-02-26T21:10:56.962Z,19.50
2024-02-26T21:13:25.177Z,20.00
2024-02-26T21:15:53.327Z,19.40
2024-02-26T21:18:23.642Z,20.00
2024-02-26T21:20:54.071Z,20.10
2024-02-26T21:23:22.312Z,20.37
2024-02-26T21:25:50.616Z,20.17
2024-02-26T21:28:19.557Z,20.30
2024-02-26T21:30:48.188Z,20.03
2024-02-26T21:33:16.284Z,20.10
2024-02-26T21:35:45.597Z,20.07
2024-02-26T21:38:13.692Z,20.30
2024-02-26T21:40:41.656Z,20.40
2024-02-26T21:43:09.804Z,20.00
2024-02-26T21:45:38.365Z,20.20
2024-02-26T21:48:06.990Z,20.23
2024-02-26T21:50:35.258Z,20.37
2024-02-26T21:53:04.920Z,20.47
2024-02-26T21:55:32.976Z,20.57
2024-02-26T21:58:00.967Z,20.60
2024-02-26T22:00:28.993Z,20.53
2024-02-26T22:02:57.068Z,20.60
2024-02-26T22:05:25.028Z,20.90
2024-02-26T22:07:53.078Z,20.57
2024-02-26T22:10:22.656Z,21.00
2024-02-26T22:12:50.662Z,21.00
2024-02-26T22:15:20.843Z,20.87
2024-02-26T22:17:49.303Z,20.60
2024-02-26T22:20:17.484Z,20.87
2024-02-26T22:22:45.400Z,21.17
2024-02-26T22:25:15.018Z,20.80
2024-02-26T22:27:44.525Z,21.03
2024-02-26T22:30:13.788Z,20.73
2024-02-26T22:32:41.865Z,20.73
2024-02-26T22:35:10.478Z,20.63
2024-02-26T22:37:39.178Z,21.37
2024-02-26T22:40:08.544Z,20.77
2024-02-26T22:42:37.062Z,20.90
2024-02-26T22:45:07.883Z,21.00
2024-02-26T22:47:35.965Z,20.77
2024-02-26T22:50:05.278Z,20.67
2024-02-26T22:52:33.447Z,20.93
2024-02-26T22:55:01.607Z,20.87
2024-02-26T22:57:29.804Z,21.03
2024-02-26T22:59:58.080Z,21.03
2024-02-26T23:02:27.632Z,20.87
2024-02-26T23:04:55.542Z,21.07
2024-02-26T23:07:23.566Z,20.73
2024-02-26T23:09:51.617Z,21.27
2024-02-26T23:12:19.599Z,20.73
2024-02-26T23:14:47.581Z,20.57
2024-02-26T23:17:15.760Z,20.47
2024-02-26T23:19:45.142Z,20.73
2024-02-26T23:22:13.209Z,20.50
2024-02-26T23:24:41.345Z,20.47
2024-02-26T23:27:09.529Z,20.70
2024-02-26T23:29:39.060Z,20.80
2024-02-26T23:32:07.626Z,21.60
2024-02-26T23:34:35.765Z,21.27
2024-02-26T23:37:05.242Z,21.30
2024-02-26T23:39:34.080Z,21.40
2024-02-26T23:42:02.292Z,21.50
2024-02-26T23:44:30.345Z,21.67
2024-02-26T23:46:58.353Z,21.70
2024-02-26T23:49:26.382Z,21.70
2024-02-26T23:51:54.942Z,21.70
2024-02-26T23:54:24.343Z,21.60
2024-02-26T23:56:52.370Z,21.50
2024-02-26T23:59:20.983Z,21.73
